sensor_id;sensor_type;location;lat;lon;timestamp;temperature;humidity
14079;DHT22;7115;50.150;8.568;2022-09-03T00:02:27;20.40;56.90
14079;DHT22;7115;50.150;8.568;2022-09-03T00:10:56;20.40;57.20
14079;DHT22;7115;50.150;8.568;2022-09-03T00:13:35;20.30;57.30
14079;DHT22;7115;50.150;8.568;2022-09-03T00:16:05;20.30;57.30
14079;DHT22;7115;50.150;8.568;2022-09-03T00:18:42;20.30;57.40
14079;DHT22;7115;50.150;8.568;2022-09-03T00:21:37;20.30;58.10
14079;DHT22;7115;50.150;8.568;2022-09-03T00:24:08;20.30;57.60
14079;DHT22;7115;50.150;8.568;2022-09-03T00:26:44;20.20;57.50
14079;DHT22;7115;50.150;8.568;2022-09-03T00:29:18;20.20;57.70
14079;DHT22;7115;50.150;8.568;2022-09-03T00:32:04;20.20;57.80
14079;DHT22;7115;50.150;8.568;2022-09-03T00:34:38;20.20;57.80
14079;DHT22;7115;50.150;8.568;2022-09-03T00:37:08;20.10;57.90
14079;DHT22;7115;50.150;8.568;2022-09-03T00:39:42;20.20;57.90
14079;DHT22;7115;50.150;8.568;2022-09-03T00:42:35;20.10;57.90
14079;DHT22;7115;50.150;8.568;2022-09-03T00:48:18;20.10;58.10
14079;DHT22;7115;50.150;8.568;2022-09-03T00:54:11;20.00;58.10
14079;DHT22;7115;50.150;8.568;2022-09-03T00:57:02;20.00;58.20
14079;DHT22;7115;50.150;8.568;2022-09-03T01:10:29;19.90;58.50
14079;DHT22;7115;50.150;8.568;2022-09-03T01:15:58;19.90;58.70
14079;DHT22;7115;50.150;8.568;2022-09-03T01:32:51;19.80;59.00
14079;DHT22;7115;50.150;8.568;2022-09-03T01:48:06;19.70;59.30
14079;DHT22;7115;50.150;8.568;2022-09-03T01:50:50;19.70;59.40
14079;DHT22;7115;50.150;8.568;2022-09-03T01:59:21;19.60;59.60
14079;DHT22;7115;50.150;8.568;2022-09-03T02:01:58;19.50;59.60
14079;DHT22;7115;50.150;8.568;2022-09-03T02:04:26;19.50;59.70
14079;DHT22;7115;50.150;8.568;2022-09-03T02:06:56;19.50;59.80
14079;DHT22;7115;50.150;8.568;2022-09-03T02:09:26;19.50;59.90
14079;DHT22;7115;50.150;8.568;2022-09-03T02:12:07;19.40;59.90
14079;DHT22;7115;50.150;8.568;2022-09-03T02:14:36;19.40;60.00
14079;DHT22;7115;50.150;8.568;2022-09-03T02:17:04;19.40;60.10
14079;DHT22;7115;50.150;8.568;2022-09-03T02:19:32;19.40;60.30
14079;DHT22;7115;50.150;8.568;2022-09-03T02:22:00;19.40;60.40
14079;DHT22;7115;50.150;8.568;2022-09-03T02:24:27;19.40;60.40
14079;DHT22;7115;50.150;8.568;2022-09-03T02:26:54;19.40;60.90
14079;DHT22;7115;50.150;8.568;2022-09-03T02:29:22;19.40;60.60
14079;DHT22;7115;50.150;8.568;2022-09-03T02:31:49;19.40;60.60
14079;DHT22;7115;50.150;8.568;2022-09-03T02:34:16;19.40;60.60
14079;DHT22;7115;50.150;8.568;2022-09-03T02:36:45;19.50;60.70
14079;DHT22;7115;50.150;8.568;2022-09-03T02:39:13;19.40;60.80
14079;DHT22;7115;50.150;8.568;2022-09-03T02:41:40;19.40;60.90
14079;DHT22;7115;50.150;8.568;2022-09-03T02:46:47;19.40;61.10
14079;DHT22;7115;50.150;8.568;2022-09-03T02:49:15;19.40;61.00
14079;DHT22;7115;50.150;8.568;2022-09-03T02:51:43;19.40;61.00
14079;DHT22;7115;50.150;8.568;2022-09-03T02:54:11;19.40;61.10
14079;DHT22;7115;50.150;8.568;2022-09-03T02:56:38;19.40;61.20
14079;DHT22;7115;50.150;8.568;2022-09-03T02:59:06;19.50;61.20
14079;DHT22;7115;50.150;8.568;2022-09-03T03:01:33;19.50;61.30
14079;DHT22;7115;50.150;8.568;2022-09-03T03:04:00;19.50;61.30
14079;DHT22;7115;50.150;8.568;2022-09-03T03:06:27;19.50;62.00
14079;DHT22;7115;50.150;8.568;2022-09-03T03:08:54;19.50;61.20
14079;DHT22;7115;50.150;8.568;2022-09-03T03:11:22;19.50;61.20
14079;DHT22;7115;50.150;8.568;2022-09-03T03:13:51;19.60;61.30
14079;DHT22;7115;50.150;8.568;2022-09-03T03:16:18;19.60;61.30
14079;DHT22;7115;50.150;8.568;2022-09-03T03:18:45;19.60;61.30
14079;DHT22;7115;50.150;8.568;2022-09-03T03:21:14;19.60;61.30
14079;DHT22;7115;50.150;8.568;2022-09-03T03:23:41;19.60;61.30
14079;DHT22;7115;50.150;8.568;2022-09-03T03:26:11;19.60;61.30
14079;DHT22;7115;50.150;8.568;2022-09-03T03:28:38;19.70;61.40
14079;DHT22;7115;50.150;8.568;2022-09-03T03:31:09;19.70;61.40
14079;DHT22;7115;50.150;8.568;2022-09-03T03:33:38;19.70;61.40
14079;DHT22;7115;50.150;8.568;2022-09-03T03:36:14;19.70;61.40
14079;DHT22;7115;50.150;8.568;2022-09-03T03:38:43;19.70;61.40
14079;DHT22;7115;50.150;8.568;2022-09-03T03:41:36;19.70;61.40
14079;DHT22;7115;50.150;8.568;2022-09-03T03:44:05;19.70;61.40
14079;DHT22;7115;50.150;8.568;2022-09-03T03:46:38;19.70;61.40
14079;DHT22;7115;50.150;8.568;2022-09-03T03:49:06;19.60;61.50
14079;DHT22;7115;50.150;8.568;2022-09-03T03:51:34;19.70;61.60
14079;DHT22;7115;50.150;8.568;2022-09-03T03:54:01;19.70;61.60
14079;DHT22;7115;50.150;8.568;2022-09-03T03:56:31;19.70;61.60
14079;DHT22;7115;50.150;8.568;2022-09-03T03:58:58;19.70;61.70
14079;DHT22;7115;50.150;8.568;2022-09-03T04:01:26;19.70;61.70
14079;DHT22;7115;50.150;8.568;2022-09-03T04:03:54;19.80;61.80
14079;DHT22;7115;50.150;8.568;2022-09-03T04:06:22;19.80;61.80
14079;DHT22;7115;50.150;8.568;2022-09-03T04:08:49;19.70;61.70
14079;DHT22;7115;50.150;8.568;2022-09-03T04:11:19;19.70;61.70
14079;DHT22;7115;50.150;8.568;2022-09-03T04:13:46;19.70;61.80
14079;DHT22;7115;50.150;8.568;2022-09-03T04:16:18;19.70;61.80
14079;DHT22;7115;50.150;8.568;2022-09-03T04:18:46;19.70;61.90
14079;DHT22;7115;50.150;8.568;2022-09-03T04:21:28;19.70;61.90
14079;DHT22;7115;50.150;8.568;2022-09-03T04:23:56;19.70;62.10
14079;DHT22;7115;50.150;8.568;2022-09-03T04:26:26;19.70;62.00
14079;DHT22;7115;50.150;8.568;2022-09-03T04:29:07;19.70;62.00
14079;DHT22;7115;50.150;8.568;2022-09-03T04:31:35;19.70;62.10
14079;DHT22;7115;50.150;8.568;2022-09-03T04:34:03;19.70;62.10
14079;DHT22;7115;50.150;8.568;2022-09-03T04:36:32;19.70;62.10
14079;DHT22;7115;50.150;8.568;2022-09-03T04:39:00;19.70;62.20
14079;DHT22;7115;50.150;8.568;2022-09-03T04:41:29;19.70;62.20
14079;DHT22;7115;50.150;8.568;2022-09-03T04:43:57;19.70;62.20
14079;DHT22;7115;50.150;8.568;2022-09-03T04:46:26;19.70;62.20
14079;DHT22;7115;50.150;8.568;2022-09-03T04:48:59;19.70;62.30
14079;DHT22;7115;50.150;8.568;2022-09-03T04:51:28;19.70;62.30
14079;DHT22;7115;50.150;8.568;2022-09-03T04:53:57;19.70;62.30
14079;DHT22;7115;50.150;8.568;2022-09-03T04:56:31;19.70;62.40
14079;DHT22;7115;50.150;8.568;2022-09-03T04:59:06;19.70;62.50
14079;DHT22;7115;50.150;8.568;2022-09-03T05:01:36;19.70;62.60
14079;DHT22;7115;50.150;8.568;2022-09-03T05:04:04;19.70;62.60
14079;DHT22;7115;50.150;8.568;2022-09-03T05:06:31;19.70;62.60
14079;DHT22;7115;50.150;8.568;2022-09-03T05:08:59;19.70;62.70
14079;DHT22;7115;50.150;8.568;2022-09-03T05:11:27;19.60;62.70
14079;DHT22;7115;50.150;8.568;2022-09-03T05:13:56;19.70;62.90
14079;DHT22;7115;50.150;8.568;2022-09-03T05:16:24;19.60;62.80
14079;DHT22;7115;50.150;8.568;2022-09-03T05:18:52;19.60;62.90
14079;DHT22;7115;50.150;8.568;2022-09-03T05:21:19;19.70;63.00
14079;DHT22;7115;50.150;8.568;2022-09-03T05:23:48;19.70;63.00
14079;DHT22;7115;50.150;8.568;2022-09-03T05:26:21;19.70;63.00
14079;DHT22;7115;50.150;8.568;2022-09-03T05:28:55;19.70;63.00
14079;DHT22;7115;50.150;8.568;2022-09-03T05:31:24;19.70;63.00
14079;DHT22;7115;50.150;8.568;2022-09-03T05:33:54;19.70;63.00
14079;DHT22;7115;50.150;8.568;2022-09-03T05:36:25;19.80;63.10
14079;DHT22;7115;50.150;8.568;2022-09-03T05:38:52;19.80;63.10
14079;DHT22;7115;50.150;8.568;2022-09-03T05:41:24;19.80;63.10
14079;DHT22;7115;50.150;8.568;2022-09-03T05:43:53;19.90;63.20
14079;DHT22;7115;50.150;8.568;2022-09-03T05:46:26;19.90;63.10
14079;DHT22;7115;50.150;8.568;2022-09-03T05:48:58;20.00;63.00
14079;DHT22;7115;50.150;8.568;2022-09-03T05:51:26;20.10;63.00
14079;DHT22;7115;50.150;8.568;2022-09-03T05:53:53;20.10;62.90
14079;DHT22;7115;50.150;8.568;2022-09-03T05:56:23;20.20;62.80
14079;DHT22;7115;50.150;8.568;2022-09-03T05:58:52;20.20;62.80
14079;DHT22;7115;50.150;8.568;2022-09-03T06:01:24;20.20;62.80
14079;DHT22;7115;50.150;8.568;2022-09-03T06:04:02;20.20;62.80
14079;DHT22;7115;50.150;8.568;2022-09-03T06:06:32;20.30;62.90
14079;DHT22;7115;50.150;8.568;2022-09-03T06:09:05;20.20;62.80
14079;DHT22;7115;50.150;8.568;2022-09-03T06:11:34;20.30;62.90
14079;DHT22;7115;50.150;8.568;2022-09-03T06:14:05;20.30;62.90
14079;DHT22;7115;50.150;8.568;2022-09-03T06:16:36;20.30;62.90
14079;DHT22;7115;50.150;8.568;2022-09-03T06:19:03;20.30;63.00
14079;DHT22;7115;50.150;8.568;2022-09-03T06:21:32;20.30;63.00
14079;DHT22;7115;50.150;8.568;2022-09-03T06:23:59;20.30;63.00
14079;DHT22;7115;50.150;8.568;2022-09-03T06:26:27;20.30;63.10
14079;DHT22;7115;50.150;8.568;2022-09-03T06:28:55;20.30;63.20
14079;DHT22;7115;50.150;8.568;2022-09-03T06:31:23;20.30;63.20
14079;DHT22;7115;50.150;8.568;2022-09-03T06:33:49;20.30;63.20
14079;DHT22;7115;50.150;8.568;2022-09-03T06:36:19;20.30;63.30
14079;DHT22;7115;50.150;8.568;2022-09-03T06:38:46;20.30;64.20
14079;DHT22;7115;50.150;8.568;2022-09-03T06:41:16;20.30;63.60
14079;DHT22;7115;50.150;8.568;2022-09-03T06:43:47;20.30;63.70
14079;DHT22;7115;50.150;8.568;2022-09-03T06:46:16;20.30;63.80
14079;DHT22;7115;50.150;8.568;2022-09-03T06:48:44;20.30;64.00
14079;DHT22;7115;50.150;8.568;2022-09-03T06:51:12;20.30;64.00
14079;DHT22;7115;50.150;8.568;2022-09-03T06:53:41;20.20;64.20
14079;DHT22;7115;50.150;8.568;2022-09-03T06:56:14;20.20;64.80
14079;DHT22;7115;50.150;8.568;2022-09-03T06:58:45;20.20;65.50
14079;DHT22;7115;50.150;8.568;2022-09-03T07:01:15;20.20;66.10
14079;DHT22;7115;50.150;8.568;2022-09-03T07:03:44;20.20;66.70
14079;DHT22;7115;50.150;8.568;2022-09-03T07:06:16;20.20;67.30
14079;DHT22;7115;50.150;8.568;2022-09-03T07:08:44;20.20;67.90
14079;DHT22;7115;50.150;8.568;2022-09-03T07:11:15;20.10;68.10
14079;DHT22;7115;50.150;8.568;2022-09-03T07:13:43;20.10;68.50
14079;DHT22;7115;50.150;8.568;2022-09-03T07:16:16;20.10;68.60
14079;DHT22;7115;50.150;8.568;2022-09-03T07:18:43;20.10;68.70
14079;DHT22;7115;50.150;8.568;2022-09-03T07:21:13;20.10;68.50
14079;DHT22;7115;50.150;8.568;2022-09-03T07:23:40;20.10;68.60
14079;DHT22;7115;50.150;8.568;2022-09-03T07:26:12;20.10;68.60
14079;DHT22;7115;50.150;8.568;2022-09-03T07:28:41;20.20;68.90
14079;DHT22;7115;50.150;8.568;2022-09-03T07:31:19;20.20;68.80
14079;DHT22;7115;50.150;8.568;2022-09-03T07:33:46;20.20;68.80
14079;DHT22;7115;50.150;8.568;2022-09-03T07:36:15;20.20;68.70
14079;DHT22;7115;50.150;8.568;2022-09-03T07:38:43;20.20;68.80
14079;DHT22;7115;50.150;8.568;2022-09-03T07:41:12;20.30;68.90
14079;DHT22;7115;50.150;8.568;2022-09-03T07:43:54;20.30;68.90
14079;DHT22;7115;50.150;8.568;2022-09-03T07:46:23;20.20;68.90
14079;DHT22;7115;50.150;8.568;2022-09-03T07:48:52;20.10;69.00
14079;DHT22;7115;50.150;8.568;2022-09-03T07:51:21;20.10;69.20
14079;DHT22;7115;50.150;8.568;2022-09-03T07:53:54;20.10;69.20
14079;DHT22;7115;50.150;8.568;2022-09-03T07:56:21;20.00;69.20
14079;DHT22;7115;50.150;8.568;2022-09-03T07:58:48;19.90;69.30
14079;DHT22;7115;50.150;8.568;2022-09-03T08:01:18;19.80;69.40
14079;DHT22;7115;50.150;8.568;2022-09-03T08:03:47;19.80;69.60
14079;DHT22;7115;50.150;8.568;2022-09-03T08:06:16;19.70;69.80
14079;DHT22;7115;50.150;8.568;2022-09-03T08:08:43;19.70;70.00
14079;DHT22;7115;50.150;8.568;2022-09-03T08:11:14;19.60;70.30
14079;DHT22;7115;50.150;8.568;2022-09-03T08:13:43;19.50;70.70
14079;DHT22;7115;50.150;8.568;2022-09-03T08:16:12;19.40;71.00
14079;DHT22;7115;50.150;8.568;2022-09-03T08:18:39;19.40;71.30
14079;DHT22;7115;50.150;8.568;2022-09-03T08:21:12;19.40;71.60
14079;DHT22;7115;50.150;8.568;2022-09-03T08:23:44;19.40;71.90
14079;DHT22;7115;50.150;8.568;2022-09-03T08:26:12;19.50;72.10
14079;DHT22;7115;50.150;8.568;2022-09-03T08:28:39;19.40;72.50
14079;DHT22;7115;50.150;8.568;2022-09-03T08:31:10;19.50;73.20
14079;DHT22;7115;50.150;8.568;2022-09-03T08:33:42;19.50;73.60
14079;DHT22;7115;50.150;8.568;2022-09-03T08:36:12;19.50;74.00
14079;DHT22;7115;50.150;8.568;2022-09-03T08:38:40;19.60;74.40
14079;DHT22;7115;50.150;8.568;2022-09-03T08:44:05;19.70;75.10
14079;DHT22;7115;50.150;8.568;2022-09-03T08:46:51;19.80;75.40
14079;DHT22;7115;50.150;8.568;2022-09-03T08:49:26;19.80;75.50
14079;DHT22;7115;50.150;8.568;2022-09-03T08:51:55;19.90;75.40
14079;DHT22;7115;50.150;8.568;2022-09-03T08:54:26;20.00;75.30
14079;DHT22;7115;50.150;8.568;2022-09-03T08:56:59;20.10;75.50
14079;DHT22;7115;50.150;8.568;2022-09-03T08:59:28;20.20;75.50
14079;DHT22;7115;50.150;8.568;2022-09-03T09:02:21;20.40;75.40
14079;DHT22;7115;50.150;8.568;2022-09-03T09:07:36;20.90;74.80
14079;DHT22;7115;50.150;8.568;2022-09-03T09:13:14;21.30;73.90
14079;DHT22;7115;50.150;8.568;2022-09-03T09:16:37;21.50;73.60
14079;DHT22;7115;50.150;8.568;2022-09-03T09:21:29;22.20;72.20
14079;DHT22;7115;50.150;8.568;2022-09-03T09:24:01;22.40;71.80
14079;DHT22;7115;50.150;8.568;2022-09-03T09:26:30;22.40;71.40
14079;DHT22;7115;50.150;8.568;2022-09-03T09:29:00;22.50;71.30
14079;DHT22;7115;50.150;8.568;2022-09-03T09:31:29;22.50;71.30
14079;DHT22;7115;50.150;8.568;2022-09-03T09:34:07;22.40;71.40
14079;DHT22;7115;50.150;8.568;2022-09-03T09:36:51;22.20;71.50
14079;DHT22;7115;50.150;8.568;2022-09-03T09:39:19;21.90;71.70
14079;DHT22;7115;50.150;8.568;2022-09-03T09:42:01;21.50;72.80
14079;DHT22;7115;50.150;8.568;2022-09-03T09:44:39;21.30;72.70
14079;DHT22;7115;50.150;8.568;2022-09-03T09:47:20;21.20;72.70
14079;DHT22;7115;50.150;8.568;2022-09-03T09:52:15;21.10;72.90
14079;DHT22;7115;50.150;8.568;2022-09-03T09:54:44;20.80;73.10
14079;DHT22;7115;50.150;8.568;2022-09-03T09:57:16;20.60;73.40
14079;DHT22;7115;50.150;8.568;2022-09-03T09:59:44;20.50;73.70
14079;DHT22;7115;50.150;8.568;2022-09-03T10:04:48;20.30;74.20
14079;DHT22;7115;50.150;8.568;2022-09-03T10:10:03;20.00;74.80
14079;DHT22;7115;50.150;8.568;2022-09-03T10:12:41;19.90;75.20
14079;DHT22;7115;50.150;8.568;2022-09-03T10:15:11;19.90;75.80
14079;DHT22;7115;50.150;8.568;2022-09-03T10:17:48;20.00;75.70
14079;DHT22;7115;50.150;8.568;2022-09-03T10:20:32;20.10;75.70
14079;DHT22;7115;50.150;8.568;2022-09-03T10:26:08;20.50;75.30
14079;DHT22;7115;50.150;8.568;2022-09-03T10:28:38;20.60;75.20
14079;DHT22;7115;50.150;8.568;2022-09-03T10:34:13;21.00;74.50
14079;DHT22;7115;50.150;8.568;2022-09-03T10:37:01;21.20;74.10
14079;DHT22;7115;50.150;8.568;2022-09-03T10:48:39;22.30;72.10
14079;DHT22;7115;50.150;8.568;2022-09-03T10:51:31;22.40;71.80
14079;DHT22;7115;50.150;8.568;2022-09-03T10:59:53;22.60;71.60
14079;DHT22;7115;50.150;8.568;2022-09-03T11:08:13;23.30;70.60
14079;DHT22;7115;50.150;8.568;2022-09-03T11:10:49;23.50;70.20
14079;DHT22;7115;50.150;8.568;2022-09-03T11:13:28;23.60;70.10
14079;DHT22;7115;50.150;8.568;2022-09-03T11:18:46;23.60;70.30
14079;DHT22;7115;50.150;8.568;2022-09-03T11:21:16;23.60;70.30
14079;DHT22;7115;50.150;8.568;2022-09-03T11:23:47;23.50;70.30
14079;DHT22;7115;50.150;8.568;2022-09-03T11:26:22;23.40;70.50
14079;DHT22;7115;50.150;8.568;2022-09-03T11:31:57;23.00;71.10
14079;DHT22;7115;50.150;8.568;2022-09-03T11:34:32;22.80;71.50
14079;DHT22;7115;50.150;8.568;2022-09-03T11:42:38;22.60;72.30
14079;DHT22;7115;50.150;8.568;2022-09-03T11:45:22;22.50;72.50
14079;DHT22;7115;50.150;8.568;2022-09-03T11:47:50;22.30;73.00
14079;DHT22;7115;50.150;8.568;2022-09-03T11:50:31;22.30;73.30
14079;DHT22;7115;50.150;8.568;2022-09-03T11:53:21;22.40;73.60
14079;DHT22;7115;50.150;8.568;2022-09-03T11:55:55;22.50;73.50
14079;DHT22;7115;50.150;8.568;2022-09-03T11:58:30;22.60;73.40
14079;DHT22;7115;50.150;8.568;2022-09-03T12:01:02;22.80;73.50
14079;DHT22;7115;50.150;8.568;2022-09-03T12:03:56;22.90;73.30
14079;DHT22;7115;50.150;8.568;2022-09-03T12:06:44;23.00;73.30
14079;DHT22;7115;50.150;8.568;2022-09-03T12:18:00;24.20;72.00
14079;DHT22;7115;50.150;8.568;2022-09-03T12:25:53;25.70;69.30
14079;DHT22;7115;50.150;8.568;2022-09-03T12:28:22;26.20;68.50
14079;DHT22;7115;50.150;8.568;2022-09-03T12:30:53;26.70;67.80
14079;DHT22;7115;50.150;8.568;2022-09-03T12:33:21;27.00;66.70
14079;DHT22;7115;50.150;8.568;2022-09-03T12:35:58;27.30;66.20
14079;DHT22;7115;50.150;8.568;2022-09-03T12:38:27;27.60;65.50
14079;DHT22;7115;50.150;8.568;2022-09-03T12:41:27;27.70;65.00
14079;DHT22;7115;50.150;8.568;2022-09-03T12:43:57;27.90;64.50
14079;DHT22;7115;50.150;8.568;2022-09-03T12:46:28;27.80;64.20
14079;DHT22;7115;50.150;8.568;2022-09-03T12:49:04;27.80;64.10
14079;DHT22;7115;50.150;8.568;2022-09-03T12:52:01;27.70;64.20
14079;DHT22;7115;50.150;8.568;2022-09-03T12:54:33;27.70;64.00
14079;DHT22;7115;50.150;8.568;2022-09-03T12:57:01;27.60;63.90
14079;DHT22;7115;50.150;8.568;2022-09-03T12:59:32;27.20;64.10
14079;DHT22;7115;50.150;8.568;2022-09-03T13:02:08;26.90;64.70
14079;DHT22;7115;50.150;8.568;2022-09-03T13:04:40;26.90;64.90
14079;DHT22;7115;50.150;8.568;2022-09-03T13:07:13;26.70;65.00
14079;DHT22;7115;50.150;8.568;2022-09-03T13:09:41;26.40;65.20
14079;DHT22;7115;50.150;8.568;2022-09-03T13:12:27;26.20;65.60
14079;DHT22;7115;50.150;8.568;2022-09-03T13:14:56;26.20;65.80
14079;DHT22;7115;50.150;8.568;2022-09-03T13:17:29;26.20;65.90
14079;DHT22;7115;50.150;8.568;2022-09-03T13:33:56;26.00;66.00
14079;DHT22;7115;50.150;8.568;2022-09-03T13:36:29;25.80;66.30
14079;DHT22;7115;50.150;8.568;2022-09-03T13:39:08;25.70;66.70
14079;DHT22;7115;50.150;8.568;2022-09-03T13:41:42;25.60;66.90
14079;DHT22;7115;50.150;8.568;2022-09-03T13:44:41;25.50;67.10
14079;DHT22;7115;50.150;8.568;2022-09-03T13:51:02;25.30;67.30
14079;DHT22;7115;50.150;8.568;2022-09-03T13:53:43;25.40;67.60
14079;DHT22;7115;50.150;8.568;2022-09-03T13:56:25;25.50;67.30
14079;DHT22;7115;50.150;8.568;2022-09-03T13:59:24;25.50;67.10
14079;DHT22;7115;50.150;8.568;2022-09-03T14:02:22;25.40;67.20
14079;DHT22;7115;50.150;8.568;2022-09-03T14:05:07;25.40;67.30
14079;DHT22;7115;50.150;8.568;2022-09-03T14:18:41;26.00;66.40
14079;DHT22;7115;50.150;8.568;2022-09-03T14:23:48;26.30;65.90
14079;DHT22;7115;50.150;8.568;2022-09-03T14:26:35;26.20;65.60
14079;DHT22;7115;50.150;8.568;2022-09-03T14:39:54;25.30;66.40
14079;DHT22;7115;50.150;8.568;2022-09-03T14:45:29;25.30;67.00
14079;DHT22;7115;50.150;8.568;2022-09-03T14:51:01;25.30;67.30
14079;DHT22;7115;50.150;8.568;2022-09-03T15:10:31;25.10;68.30
14079;DHT22;7115;50.150;8.568;2022-09-03T15:13:23;25.20;68.40
14079;DHT22;7115;50.150;8.568;2022-09-03T15:16:13;25.20;68.40
14079;DHT22;7115;50.150;8.568;2022-09-03T15:19:05;25.30;68.20
14079;DHT22;7115;50.150;8.568;2022-09-03T15:27:34;25.10;68.70
14079;DHT22;7115;50.150;8.568;2022-09-03T15:30:15;25.00;68.80
14079;DHT22;7115;50.150;8.568;2022-09-03T15:33:20;24.90;69.10
14079;DHT22;7115;50.150;8.568;2022-09-03T15:35:56;24.90;69.30
14079;DHT22;7115;50.150;8.568;2022-09-03T15:38:38;24.90;69.40
14079;DHT22;7115;50.150;8.568;2022-09-03T15:41:16;24.90;69.50
14079;DHT22;7115;50.150;8.568;2022-09-03T15:43:47;24.80;69.60
14079;DHT22;7115;50.150;8.568;2022-09-03T15:54:55;24.70;70.60
14079;DHT22;7115;50.150;8.568;2022-09-03T15:57:28;24.70;70.50
14079;DHT22;7115;50.150;8.568;2022-09-03T16:00:17;24.80;70.50
14079;DHT22;7115;50.150;8.568;2022-09-03T16:02:57;24.80;70.50
14079;DHT22;7115;50.150;8.568;2022-09-03T16:05:46;24.80;70.60
14079;DHT22;7115;50.150;8.568;2022-09-03T16:13:55;24.60;71.50
14079;DHT22;7115;50.150;8.568;2022-09-03T16:25:30;24.40;72.60
14079;DHT22;7115;50.150;8.568;2022-09-03T16:28:20;24.40;72.90
14079;DHT22;7115;50.150;8.568;2022-09-03T16:37:13;24.20;73.70
14079;DHT22;7115;50.150;8.568;2022-09-03T16:39:47;24.10;74.00
14079;DHT22;7115;50.150;8.568;2022-09-03T16:42:33;24.00;74.30
14079;DHT22;7115;50.150;8.568;2022-09-03T16:56:01;23.80;75.70
14079;DHT22;7115;50.150;8.568;2022-09-03T17:04:21;23.70;76.10
14079;DHT22;7115;50.150;8.568;2022-09-03T17:12:27;23.70;76.60
14079;DHT22;7115;50.150;8.568;2022-09-03T17:21:35;23.40;77.40
14079;DHT22;7115;50.150;8.568;2022-09-03T17:24:20;23.20;77.80
14079;DHT22;7115;50.150;8.568;2022-09-03T17:44:00;22.30;79.30
14079;DHT22;7115;50.150;8.568;2022-09-03T17:48:58;22.20;79.40
14079;DHT22;7115;50.150;8.568;2022-09-03T17:51:43;22.20;79.60
14079;DHT22;7115;50.150;8.568;2022-09-03T17:57:21;22.20;79.90
14079;DHT22;7115;50.150;8.568;2022-09-03T18:00:08;22.20;80.10
14079;DHT22;7115;50.150;8.568;2022-09-03T18:02:44;22.30;80.30
14079;DHT22;7115;50.150;8.568;2022-09-03T18:08:11;22.30;80.40
14079;DHT22;7115;50.150;8.568;2022-09-03T18:13:18;22.40;80.70
14079;DHT22;7115;50.150;8.568;2022-09-03T18:15:59;22.40;80.80
14079;DHT22;7115;50.150;8.568;2022-09-03T18:18:33;22.40;80.90
14079;DHT22;7115;50.150;8.568;2022-09-03T18:21:06;22.40;81.00
14079;DHT22;7115;50.150;8.568;2022-09-03T18:24:17;22.30;81.10
14079;DHT22;7115;50.150;8.568;2022-09-03T18:27:35;22.20;81.20
14079;DHT22;7115;50.150;8.568;2022-09-03T18:30:24;22.00;81.40
14079;DHT22;7115;50.150;8.568;2022-09-03T18:33:12;21.90;81.50
14079;DHT22;7115;50.150;8.568;2022-09-03T18:35:58;21.80;81.80
14079;DHT22;7115;50.150;8.568;2022-09-03T18:38:43;21.70;81.90
14079;DHT22;7115;50.150;8.568;2022-09-03T18:47:24;21.50;82.50
14079;DHT22;7115;50.150;8.568;2022-09-03T18:50:44;21.40;82.80
14079;DHT22;7115;50.150;8.568;2022-09-03T18:56:48;21.10;83.40
14079;DHT22;7115;50.150;8.568;2022-09-03T19:00:01;21.10;83.70
14079;DHT22;7115;50.150;8.568;2022-09-03T19:08:58;20.90;83.90
14079;DHT22;7115;50.150;8.568;2022-09-03T19:20:27;20.70;84.80
14079;DHT22;7115;50.150;8.568;2022-09-03T19:23:13;20.70;85.10
14079;DHT22;7115;50.150;8.568;2022-09-03T19:26:18;20.70;85.10
14079;DHT22;7115;50.150;8.568;2022-09-03T19:29:20;20.70;85.50
14079;DHT22;7115;50.150;8.568;2022-09-03T19:32:14;20.60;85.50
14079;DHT22;7115;50.150;8.568;2022-09-03T19:35:11;20.60;85.60
14079;DHT22;7115;50.150;8.568;2022-09-03T19:38:10;20.60;85.80
14079;DHT22;7115;50.150;8.568;2022-09-03T19:41:14;20.60;85.80
14079;DHT22;7115;50.150;8.568;2022-09-03T19:46:56;20.50;86.20
14079;DHT22;7115;50.150;8.568;2022-09-03T19:53:03;20.50;87.10
14079;DHT22;7115;50.150;8.568;2022-09-03T19:55:54;20.40;87.30
14079;DHT22;7115;50.150;8.568;2022-09-03T19:58:48;20.30;87.60
14079;DHT22;7115;50.150;8.568;2022-09-03T20:01:36;20.30;88.10
14079;DHT22;7115;50.150;8.568;2022-09-03T20:04:30;20.20;88.20
14079;DHT22;7115;50.150;8.568;2022-09-03T20:07:17;20.30;88.50
14079;DHT22;7115;50.150;8.568;2022-09-03T20:10:06;20.20;88.50
14079;DHT22;7115;50.150;8.568;2022-09-03T20:13:28;20.20;88.80
14079;DHT22;7115;50.150;8.568;2022-09-03T20:19:14;20.00;89.50
14079;DHT22;7115;50.150;8.568;2022-09-03T20:24:29;19.90;90.10
14079;DHT22;7115;50.150;8.568;2022-09-03T20:29:55;19.70;90.50
14079;DHT22;7115;50.150;8.568;2022-09-03T20:46:34;19.60;91.60
14079;DHT22;7115;50.150;8.568;2022-09-03T20:52:05;19.50;91.90
14079;DHT22;7115;50.150;8.568;2022-09-03T21:00:18;19.50;92.30
14079;DHT22;7115;50.150;8.568;2022-09-03T21:03:15;19.50;92.30
14079;DHT22;7115;50.150;8.568;2022-09-03T21:17:28;19.60;92.80
14079;DHT22;7115;50.150;8.568;2022-09-03T21:28:25;19.70;92.90
14079;DHT22;7115;50.150;8.568;2022-09-03T21:31:03;19.70;92.90
14079;DHT22;7115;50.150;8.568;2022-09-03T21:33:35;19.70;92.90
14079;DHT22;7115;50.150;8.568;2022-09-03T21:36:14;19.70;92.90
14079;DHT22;7115;50.150;8.568;2022-09-03T21:38:55;19.60;93.00
14079;DHT22;7115;50.150;8.568;2022-09-03T21:41:27;19.60;93.00
14079;DHT22;7115;50.150;8.568;2022-09-03T21:44:11;19.50;93.10
14079;DHT22;7115;50.150;8.568;2022-09-03T21:49:53;19.40;93.40
14079;DHT22;7115;50.150;8.568;2022-09-03T21:52:50;19.40;93.50
14079;DHT22;7115;50.150;8.568;2022-09-03T22:00:45;19.30;93.60
14079;DHT22;7115;50.150;8.568;2022-09-03T22:03:12;19.30;93.60
14079;DHT22;7115;50.150;8.568;2022-09-03T22:06:04;19.20;93.60
14079;DHT22;7115;50.150;8.568;2022-09-03T22:11:29;19.20;93.90
14079;DHT22;7115;50.150;8.568;2022-09-03T22:19:22;19.10;94.10
14079;DHT22;7115;50.150;8.568;2022-09-03T22:21:57;19.10;94.20
14079;DHT22;7115;50.150;8.568;2022-09-03T22:30:12;19.00;94.30
14079;DHT22;7115;50.150;8.568;2022-09-03T22:33:05;19.00;94.20
14079;DHT22;7115;50.150;8.568;2022-09-03T22:36:09;19.00;94.10
14079;DHT22;7115;50.150;8.568;2022-09-03T22:38:58;19.00;94.00
14079;DHT22;7115;50.150;8.568;2022-09-03T22:41:39;18.90;93.90
14079;DHT22;7115;50.150;8.568;2022-09-03T22:44:16;18.80;93.90
14079;DHT22;7115;50.150;8.568;2022-09-03T22:52:53;18.80;93.90
14079;DHT22;7115;50.150;8.568;2022-09-03T22:55:25;18.80;93.80
14079;DHT22;7115;50.150;8.568;2022-09-03T22:58:25;18.70;93.80
14079;DHT22;7115;50.150;8.568;2022-09-03T23:01:06;18.60;93.70
14079;DHT22;7115;50.150;8.568;2022-09-03T23:03:42;18.60;93.70
14079;DHT22;7115;50.150;8.568;2022-09-03T23:06:33;18.50;93.70
14079;DHT22;7115;50.150;8.568;2022-09-03T23:09:08;18.50;93.80
14079;DHT22;7115;50.150;8.568;2022-09-03T23:11:44;18.50;93.80
14079;DHT22;7115;50.150;8.568;2022-09-03T23:14:26;18.40;93.90
14079;DHT22;7115;50.150;8.568;2022-09-03T23:16:58;18.40;94.00
14079;DHT22;7115;50.150;8.568;2022-09-03T23:19:41;18.40;94.10